sensor_id;sensor_type;location;lat;lon;timestamp;temperature;humidity
11536;DHT22;5824;49.336;8.652;2022-10-12T00:01:14;12.40;1.00
11536;DHT22;5824;49.336;8.652;2022-10-12T00:03:40;12.30;1.00
11536;DHT22;5824;49.336;8.652;2022-10-12T00:06:12;12.20;1.00
11536;DHT22;5824;49.336;8.652;2022-10-12T00:08:40;12.20;1.00
11536;DHT22;5824;49.336;8.652;2022-10-12T00:11:07;12.20;1.00
11536;DHT22;5824;49.336;8.652;2022-10-12T00:13:33;12.10;1.00
11536;DHT22;5824;49.336;8.652;2022-10-12T00:16:06;12.00;1.00
11536;DHT22;5824;49.336;8.652;2022-10-12T00:18:33;11.90;1.00
11536;DHT22;5824;49.336;8.652;2022-10-12T00:21:03;11.90;1.00
11536;DHT22;5824;49.336;8.652;2022-10-12T00:23:29;11.80;1.00
11536;DHT22;5824;49.336;8.652;2022-10-12T00:25:55;11.80;1.00
11536;DHT22;5824;49.336;8.652;2022-10-12T00:28:21;11.80;1.00
11536;DHT22;5824;49.336;8.652;2022-10-12T00:30:46;11.80;1.00
11536;DHT22;5824;49.336;8.652;2022-10-12T00:33:12;11.80;1.00
11536;DHT22;5824;49.336;8.652;2022-10-12T00:35:37;11.90;1.00
11536;DHT22;5824;49.336;8.652;2022-10-12T00:38:03;12.00;1.00
11536;DHT22;5824;49.336;8.652;2022-10-12T00:40:28;12.10;1.00
11536;DHT22;5824;49.336;8.652;2022-10-12T00:42:54;12.00;1.00
11536;DHT22;5824;49.336;8.652;2022-10-12T00:45:20;12.20;1.00
11536;DHT22;5824;49.336;8.652;2022-10-12T00:47:50;12.30;1.00
11536;DHT22;5824;49.336;8.652;2022-10-12T00:50:31;12.40;1.00
11536;DHT22;5824;49.336;8.652;2022-10-12T00:55:28;12.40;1.00
11536;DHT22;5824;49.336;8.652;2022-10-12T00:57:54;12.40;1.00
11536;DHT22;5824;49.336;8.652;2022-10-12T01:00:21;12.50;1.00
11536;DHT22;5824;49.336;8.652;2022-10-12T01:02:50;12.50;1.00
11536;DHT22;5824;49.336;8.652;2022-10-12T01:05:16;12.60;1.00
11536;DHT22;5824;49.336;8.652;2022-10-12T01:07:42;12.70;1.00
11536;DHT22;5824;49.336;8.652;2022-10-12T01:10:09;12.70;1.00
11536;DHT22;5824;49.336;8.652;2022-10-12T01:12:36;12.70;1.00
11536;DHT22;5824;49.336;8.652;2022-10-12T01:15:03;12.80;1.00
11536;DHT22;5824;49.336;8.652;2022-10-12T01:20:24;12.80;1.00
11536;DHT22;5824;49.336;8.652;2022-10-12T01:31:34;12.90;1.00
11536;DHT22;5824;49.336;8.652;2022-10-12T01:34:12;13.00;1.00
11536;DHT22;5824;49.336;8.652;2022-10-12T01:36:46;13.00;1.00
11536;DHT22;5824;49.336;8.652;2022-10-12T01:39:37;13.00;1.00
11536;DHT22;5824;49.336;8.652;2022-10-12T01:42:14;13.00;1.00
11536;DHT22;5824;49.336;8.652;2022-10-12T01:44:41;13.00;1.00
11536;DHT22;5824;49.336;8.652;2022-10-12T01:47:06;13.00;1.00
11536;DHT22;5824;49.336;8.652;2022-10-12T01:49:33;13.00;1.00
11536;DHT22;5824;49.336;8.652;2022-10-12T01:52:15;12.90;1.00
11536;DHT22;5824;49.336;8.652;2022-10-12T01:55:06;13.20;1.00
11536;DHT22;5824;49.336;8.652;2022-10-12T01:57:46;12.70;1.00
11536;DHT22;5824;49.336;8.652;2022-10-12T02:00:15;12.60;1.00
11536;DHT22;5824;49.336;8.652;2022-10-12T02:03:18;13.00;1.00
11536;DHT22;5824;49.336;8.652;2022-10-12T02:05:47;12.70;1.00
11536;DHT22;5824;49.336;8.652;2022-10-12T02:08:19;12.60;1.00
11536;DHT22;5824;49.336;8.652;2022-10-12T02:11:10;12.50;1.00
11536;DHT22;5824;49.336;8.652;2022-10-12T02:13:47;12.60;1.00
11536;DHT22;5824;49.336;8.652;2022-10-12T02:16:18;12.60;1.00
11536;DHT22;5824;49.336;8.652;2022-10-12T02:18:49;12.60;1.00
11536;DHT22;5824;49.336;8.652;2022-10-12T02:21:20;12.60;1.00
11536;DHT22;5824;49.336;8.652;2022-10-12T02:23:47;12.50;1.00
11536;DHT22;5824;49.336;8.652;2022-10-12T02:26:15;12.50;1.00
11536;DHT22;5824;49.336;8.652;2022-10-12T02:28:42;12.60;1.00
11536;DHT22;5824;49.336;8.652;2022-10-12T02:31:27;12.50;1.00
11536;DHT22;5824;49.336;8.652;2022-10-12T02:34:02;12.50;1.00
11536;DHT22;5824;49.336;8.652;2022-10-12T02:39:36;12.50;1.00
11536;DHT22;5824;49.336;8.652;2022-10-12T02:42:08;12.50;1.00
11536;DHT22;5824;49.336;8.652;2022-10-12T02:44:37;12.50;1.00
11536;DHT22;5824;49.336;8.652;2022-10-12T02:47:06;12.50;1.00
11536;DHT22;5824;49.336;8.652;2022-10-12T02:49:33;12.40;1.00
11536;DHT22;5824;49.336;8.652;2022-10-12T02:52:03;12.40;1.00
11536;DHT22;5824;49.336;8.652;2022-10-12T02:54:30;12.40;1.00
11536;DHT22;5824;49.336;8.652;2022-10-12T02:56:55;12.40;1.00
11536;DHT22;5824;49.336;8.652;2022-10-12T02:59:21;12.40;1.00
11536;DHT22;5824;49.336;8.652;2022-10-12T03:01:47;12.40;1.00
11536;DHT22;5824;49.336;8.652;2022-10-12T03:04:12;12.40;1.00
11536;DHT22;5824;49.336;8.652;2022-10-12T03:06:38;12.30;1.00
11536;DHT22;5824;49.336;8.652;2022-10-12T03:09:04;12.30;1.00
11536;DHT22;5824;49.336;8.652;2022-10-12T03:11:30;12.20;1.00
11536;DHT22;5824;49.336;8.652;2022-10-12T03:13:56;12.20;1.00
11536;DHT22;5824;49.336;8.652;2022-10-12T03:16:22;12.20;1.00
11536;DHT22;5824;49.336;8.652;2022-10-12T03:18:48;12.20;1.00
11536;DHT22;5824;49.336;8.652;2022-10-12T03:21:13;12.10;1.00
11536;DHT22;5824;49.336;8.652;2022-10-12T03:23:39;12.00;1.00
11536;DHT22;5824;49.336;8.652;2022-10-12T03:26:05;12.00;1.00
11536;DHT22;5824;49.336;8.652;2022-10-12T03:28:31;12.00;1.00
11536;DHT22;5824;49.336;8.652;2022-10-12T03:30:57;12.10;1.00
11536;DHT22;5824;49.336;8.652;2022-10-12T03:33:23;12.10;1.00
11536;DHT22;5824;49.336;8.652;2022-10-12T03:35:49;12.00;1.00
11536;DHT22;5824;49.336;8.652;2022-10-12T03:38:15;11.90;1.00
11536;DHT22;5824;49.336;8.652;2022-10-12T03:40:41;11.90;1.00
11536;DHT22;5824;49.336;8.652;2022-10-12T03:43:07;11.90;1.00
11536;DHT22;5824;49.336;8.652;2022-10-12T03:45:33;11.70;1.00
11536;DHT22;5824;49.336;8.652;2022-10-12T03:47:58;11.60;1.00
11536;DHT22;5824;49.336;8.652;2022-10-12T03:50:24;11.60;1.00
11536;DHT22;5824;49.336;8.652;2022-10-12T03:52:50;11.60;1.00
11536;DHT22;5824;49.336;8.652;2022-10-12T03:55:15;11.60;1.00
11536;DHT22;5824;49.336;8.652;2022-10-12T03:57:41;11.50;1.00
11536;DHT22;5824;49.336;8.652;2022-10-12T04:00:07;11.50;1.00
11536;DHT22;5824;49.336;8.652;2022-10-12T04:02:32;11.30;1.00
11536;DHT22;5824;49.336;8.652;2022-10-12T04:04:58;11.30;1.00
11536;DHT22;5824;49.336;8.652;2022-10-12T04:07:24;11.30;1.00
11536;DHT22;5824;49.336;8.652;2022-10-12T04:09:49;11.30;1.00
11536;DHT22;5824;49.336;8.652;2022-10-12T04:12:15;11.30;1.00
11536;DHT22;5824;49.336;8.652;2022-10-12T04:14:40;11.30;1.00
11536;DHT22;5824;49.336;8.652;2022-10-12T04:17:06;11.30;1.00
11536;DHT22;5824;49.336;8.652;2022-10-12T04:19:32;11.30;1.00
11536;DHT22;5824;49.336;8.652;2022-10-12T04:21:57;11.20;1.00
11536;DHT22;5824;49.336;8.652;2022-10-12T04:24:23;11.20;1.00
11536;DHT22;5824;49.336;8.652;2022-10-12T04:26:48;11.20;1.00
11536;DHT22;5824;49.336;8.652;2022-10-12T04:29:14;11.10;1.00
11536;DHT22;5824;49.336;8.652;2022-10-12T04:31:40;11.10;1.00
11536;DHT22;5824;49.336;8.652;2022-10-12T04:34:07;11.10;1.00
11536;DHT22;5824;49.336;8.652;2022-10-12T04:36:33;11.10;1.00
11536;DHT22;5824;49.336;8.652;2022-10-12T04:38:58;11.00;1.00
11536;DHT22;5824;49.336;8.652;2022-10-12T04:41:24;10.90;1.00
11536;DHT22;5824;49.336;8.652;2022-10-12T04:43:51;10.90;1.00
11536;DHT22;5824;49.336;8.652;2022-10-12T04:46:17;10.90;1.00
11536;DHT22;5824;49.336;8.652;2022-10-12T04:48:42;10.90;1.00
11536;DHT22;5824;49.336;8.652;2022-10-12T04:51:08;11.10;1.00
11536;DHT22;5824;49.336;8.652;2022-10-12T04:53:34;11.10;1.00
11536;DHT22;5824;49.336;8.652;2022-10-12T04:56:04;11.40;1.00
11536;DHT22;5824;49.336;8.652;2022-10-12T04:58:30;11.10;1.00
11536;DHT22;5824;49.336;8.652;2022-10-12T05:00:55;11.10;1.00
11536;DHT22;5824;49.336;8.652;2022-10-12T05:03:21;11.10;1.00
11536;DHT22;5824;49.336;8.652;2022-10-12T05:05:47;11.10;1.00
11536;DHT22;5824;49.336;8.652;2022-10-12T05:08:12;11.10;1.00
11536;DHT22;5824;49.336;8.652;2022-10-12T05:10:39;11.10;1.00
11536;DHT22;5824;49.336;8.652;2022-10-12T05:13:04;11.20;1.00
11536;DHT22;5824;49.336;8.652;2022-10-12T05:15:30;11.20;1.00
11536;DHT22;5824;49.336;8.652;2022-10-12T05:17:55;11.20;1.00
11536;DHT22;5824;49.336;8.652;2022-10-12T05:20:21;11.10;1.00
11536;DHT22;5824;49.336;8.652;2022-10-12T05:22:46;11.00;1.00
11536;DHT22;5824;49.336;8.652;2022-10-12T05:25:12;11.10;1.00
11536;DHT22;5824;49.336;8.652;2022-10-12T05:27:38;11.10;1.00
11536;DHT22;5824;49.336;8.652;2022-10-12T05:30:04;11.10;1.00
11536;DHT22;5824;49.336;8.652;2022-10-12T05:32:30;11.10;1.00
11536;DHT22;5824;49.336;8.652;2022-10-12T05:34:55;11.10;1.00
11536;DHT22;5824;49.336;8.652;2022-10-12T05:37:21;11.20;1.00
11536;DHT22;5824;49.336;8.652;2022-10-12T05:39:47;11.20;1.00
11536;DHT22;5824;49.336;8.652;2022-10-12T05:42:14;11.20;1.00
11536;DHT22;5824;49.336;8.652;2022-10-12T05:44:40;11.10;1.00
11536;DHT22;5824;49.336;8.652;2022-10-12T05:47:05;11.10;1.00
11536;DHT22;5824;49.336;8.652;2022-10-12T05:49:31;11.10;1.00
11536;DHT22;5824;49.336;8.652;2022-10-12T05:51:57;11.10;1.00
11536;DHT22;5824;49.336;8.652;2022-10-12T05:54:22;11.00;1.00
11536;DHT22;5824;49.336;8.652;2022-10-12T05:56:48;11.10;1.00
11536;DHT22;5824;49.336;8.652;2022-10-12T05:59:13;11.10;1.00
11536;DHT22;5824;49.336;8.652;2022-10-12T06:01:39;11.10;1.00
11536;DHT22;5824;49.336;8.652;2022-10-12T06:04:04;11.20;1.00
11536;DHT22;5824;49.336;8.652;2022-10-12T06:06:30;11.20;1.00
11536;DHT22;5824;49.336;8.652;2022-10-12T06:08:56;11.20;1.00
11536;DHT22;5824;49.336;8.652;2022-10-12T06:11:21;11.40;1.00
11536;DHT22;5824;49.336;8.652;2022-10-12T06:13:47;11.40;1.00
11536;DHT22;5824;49.336;8.652;2022-10-12T06:16:12;11.50;1.00
11536;DHT22;5824;49.336;8.652;2022-10-12T06:18:38;11.50;1.00
11536;DHT22;5824;49.336;8.652;2022-10-12T06:21:03;11.30;1.00
11536;DHT22;5824;49.336;8.652;2022-10-12T06:23:29;11.30;1.00
11536;DHT22;5824;49.336;8.652;2022-10-12T06:25:54;11.40;1.00
11536;DHT22;5824;49.336;8.652;2022-10-12T06:28:20;11.40;1.00
11536;DHT22;5824;49.336;8.652;2022-10-12T06:30:52;11.40;1.00
11536;DHT22;5824;49.336;8.652;2022-10-12T06:33:17;12.10;1.00
11536;DHT22;5824;49.336;8.652;2022-10-12T06:35:43;11.60;1.00
11536;DHT22;5824;49.336;8.652;2022-10-12T06:38:08;11.70;1.00
11536;DHT22;5824;49.336;8.652;2022-10-12T06:40:34;11.80;1.00
11536;DHT22;5824;49.336;8.652;2022-10-12T06:42:59;11.70;1.00
11536;DHT22;5824;49.336;8.652;2022-10-12T06:45:28;11.70;1.00
11536;DHT22;5824;49.336;8.652;2022-10-12T06:47:54;11.80;1.00
11536;DHT22;5824;49.336;8.652;2022-10-12T06:50:19;11.80;1.00
11536;DHT22;5824;49.336;8.652;2022-10-12T06:52:46;11.80;1.00
11536;DHT22;5824;49.336;8.652;2022-10-12T06:55:12;12.00;1.00
11536;DHT22;5824;49.336;8.652;2022-10-12T06:57:37;12.10;1.00
11536;DHT22;5824;49.336;8.652;2022-10-12T07:00:05;13.10;1.00
11536;DHT22;5824;49.336;8.652;2022-10-12T07:02:31;12.30;1.00
11536;DHT22;5824;49.336;8.652;2022-10-12T07:04:56;12.40;1.00
11536;DHT22;5824;49.336;8.652;2022-10-12T07:07:22;13.00;1.00
11536;DHT22;5824;49.336;8.652;2022-10-12T07:09:47;12.70;1.00
11536;DHT22;5824;49.336;8.652;2022-10-12T07:12:13;14.00;1.00
11536;DHT22;5824;49.336;8.652;2022-10-12T07:14:39;12.80;1.00
11536;DHT22;5824;49.336;8.652;2022-10-12T07:17:04;12.80;1.00
11536;DHT22;5824;49.336;8.652;2022-10-12T07:19:30;12.60;1.00
11536;DHT22;5824;49.336;8.652;2022-10-12T07:21:55;12.60;1.00
11536;DHT22;5824;49.336;8.652;2022-10-12T07:24:21;13.00;1.00
11536;DHT22;5824;49.336;8.652;2022-10-12T07:26:48;12.70;1.00
11536;DHT22;5824;49.336;8.652;2022-10-12T07:29:14;12.60;1.00
11536;DHT22;5824;49.336;8.652;2022-10-12T07:31:39;12.70;1.00
11536;DHT22;5824;49.336;8.652;2022-10-12T07:34:06;12.90;1.00
11536;DHT22;5824;49.336;8.652;2022-10-12T07:36:32;13.10;1.00
11536;DHT22;5824;49.336;8.652;2022-10-12T07:38:58;13.30;1.00
11536;DHT22;5824;49.336;8.652;2022-10-12T07:41:24;13.70;1.00
11536;DHT22;5824;49.336;8.652;2022-10-12T07:43:53;13.90;1.00
11536;DHT22;5824;49.336;8.652;2022-10-12T07:46:20;13.90;1.00
11536;DHT22;5824;49.336;8.652;2022-10-12T07:48:45;14.00;1.00
11536;DHT22;5824;49.336;8.652;2022-10-12T07:51:11;14.10;1.00
11536;DHT22;5824;49.336;8.652;2022-10-12T07:53:37;14.10;1.00
11536;DHT22;5824;49.336;8.652;2022-10-12T07:56:06;14.40;1.00
11536;DHT22;5824;49.336;8.652;2022-10-12T07:58:32;14.40;1.00
11536;DHT22;5824;49.336;8.652;2022-10-12T08:01:05;14.60;1.00
11536;DHT22;5824;49.336;8.652;2022-10-12T08:03:31;14.50;1.00
11536;DHT22;5824;49.336;8.652;2022-10-12T08:05:56;14.60;1.00
11536;DHT22;5824;49.336;8.652;2022-10-12T08:08:22;14.70;1.00
11536;DHT22;5824;49.336;8.652;2022-10-12T08:10:47;14.90;1.00
11536;DHT22;5824;49.336;8.652;2022-10-12T08:13:13;15.20;1.00
11536;DHT22;5824;49.336;8.652;2022-10-12T08:15:39;15.30;1.00
11536;DHT22;5824;49.336;8.652;2022-10-12T08:18:05;15.50;1.00
11536;DHT22;5824;49.336;8.652;2022-10-12T08:20:30;15.40;1.00
11536;DHT22;5824;49.336;8.652;2022-10-12T08:22:56;15.30;1.00
11536;DHT22;5824;49.336;8.652;2022-10-12T08:25:21;15.20;1.00
11536;DHT22;5824;49.336;8.652;2022-10-12T08:27:47;15.20;1.00
11536;DHT22;5824;49.336;8.652;2022-10-12T08:30:12;15.30;1.00
11536;DHT22;5824;49.336;8.652;2022-10-12T08:32:38;15.40;1.00
11536;DHT22;5824;49.336;8.652;2022-10-12T08:35:04;15.50;1.00
11536;DHT22;5824;49.336;8.652;2022-10-12T08:37:30;15.70;1.00
11536;DHT22;5824;49.336;8.652;2022-10-12T08:39:56;15.70;1.00
11536;DHT22;5824;49.336;8.652;2022-10-12T08:47:48;15.90;1.00
11536;DHT22;5824;49.336;8.652;2022-10-12T08:50:54;15.90;1.00
11536;DHT22;5824;49.336;8.652;2022-10-12T08:53:34;16.00;1.00
11536;DHT22;5824;49.336;8.652;2022-10-12T08:56:01;15.90;1.00
11536;DHT22;5824;49.336;8.652;2022-10-12T08:58:29;15.90;1.00
11536;DHT22;5824;49.336;8.652;2022-10-12T09:15:23;15.60;1.00
11536;DHT22;5824;49.336;8.652;2022-10-12T09:17:57;15.70;1.00
11536;DHT22;5824;49.336;8.652;2022-10-12T09:20:33;15.60;1.00
11536;DHT22;5824;49.336;8.652;2022-10-12T09:23:05;15.70;1.00
11536;DHT22;5824;49.336;8.652;2022-10-12T09:25:33;15.70;1.00
11536;DHT22;5824;49.336;8.652;2022-10-12T09:28:12;15.90;1.00
11536;DHT22;5824;49.336;8.652;2022-10-12T09:30:45;16.30;1.00
11536;DHT22;5824;49.336;8.652;2022-10-12T09:33:23;16.40;1.00
11536;DHT22;5824;49.336;8.652;2022-10-12T09:35:52;16.60;1.00
11536;DHT22;5824;49.336;8.652;2022-10-12T09:38:17;16.90;1.00
11536;DHT22;5824;49.336;8.652;2022-10-12T09:40:44;17.20;1.00
11536;DHT22;5824;49.336;8.652;2022-10-12T09:43:10;17.40;1.00
11536;DHT22;5824;49.336;8.652;2022-10-12T09:45:36;17.70;1.00
11536;DHT22;5824;49.336;8.652;2022-10-12T09:48:17;17.80;1.00
11536;DHT22;5824;49.336;8.652;2022-10-12T09:50:47;17.80;1.00
11536;DHT22;5824;49.336;8.652;2022-10-12T09:53:23;17.90;1.00
11536;DHT22;5824;49.336;8.652;2022-10-12T09:56:20;18.10;1.00
11536;DHT22;5824;49.336;8.652;2022-10-12T09:59:00;18.20;1.00
11536;DHT22;5824;49.336;8.652;2022-10-12T10:01:28;18.20;1.00
11536;DHT22;5824;49.336;8.652;2022-10-12T10:06:40;18.40;1.00
11536;DHT22;5824;49.336;8.652;2022-10-12T10:09:32;18.70;1.00
11536;DHT22;5824;49.336;8.652;2022-10-12T10:12:11;19.00;1.00
11536;DHT22;5824;49.336;8.652;2022-10-12T10:14:37;19.20;1.00
11536;DHT22;5824;49.336;8.652;2022-10-12T10:17:06;19.30;1.00
11536;DHT22;5824;49.336;8.652;2022-10-12T10:19:31;19.30;1.00
11536;DHT22;5824;49.336;8.652;2022-10-12T10:22:04;19.10;1.00
11536;DHT22;5824;49.336;8.652;2022-10-12T10:24:32;19.00;1.00
11536;DHT22;5824;49.336;8.652;2022-10-12T10:27:04;18.90;1.00
11536;DHT22;5824;49.336;8.652;2022-10-12T10:29:38;18.90;1.00
11536;DHT22;5824;49.336;8.652;2022-10-12T10:32:21;19.10;1.00
11536;DHT22;5824;49.336;8.652;2022-10-12T10:37:49;19.10;1.00
11536;DHT22;5824;49.336;8.652;2022-10-12T10:40:24;19.00;1.00
11536;DHT22;5824;49.336;8.652;2022-10-12T10:42:54;19.20;1.00
11536;DHT22;5824;49.336;8.652;2022-10-12T10:45:26;19.40;1.00
11536;DHT22;5824;49.336;8.652;2022-10-12T10:47:53;19.30;1.00
11536;DHT22;5824;49.336;8.652;2022-10-12T10:50:34;19.20;1.00
11536;DHT22;5824;49.336;8.652;2022-10-12T10:53:07;19.50;1.00
11536;DHT22;5824;49.336;8.652;2022-10-12T10:56:01;19.80;1.00
11536;DHT22;5824;49.336;8.652;2022-10-12T10:58:34;19.80;1.00
11536;DHT22;5824;49.336;8.652;2022-10-12T11:01:19;20.10;1.00
11536;DHT22;5824;49.336;8.652;2022-10-12T11:04:03;20.50;1.00
11536;DHT22;5824;49.336;8.652;2022-10-12T11:06:44;21.10;1.00
11536;DHT22;5824;49.336;8.652;2022-10-12T11:09:20;21.60;1.00
11536;DHT22;5824;49.336;8.652;2022-10-12T11:14:28;22.30;1.00
11536;DHT22;5824;49.336;8.652;2022-10-12T11:16:59;22.90;1.00
11536;DHT22;5824;49.336;8.652;2022-10-12T11:19:38;24.00;1.00
11536;DHT22;5824;49.336;8.652;2022-10-12T11:22:16;25.20;1.00
11536;DHT22;5824;49.336;8.652;2022-10-12T11:24:53;26.40;1.00
11536;DHT22;5824;49.336;8.652;2022-10-12T11:27:38;28.70;1.00
11536;DHT22;5824;49.336;8.652;2022-10-12T11:30:19;29.30;1.00
11536;DHT22;5824;49.336;8.652;2022-10-12T11:33:11;30.00;1.00
11536;DHT22;5824;49.336;8.652;2022-10-12T11:35:43;31.10;1.00
11536;DHT22;5824;49.336;8.652;2022-10-12T11:38:17;31.90;1.00
11536;DHT22;5824;49.336;8.652;2022-10-12T11:43:33;33.30;1.00
11536;DHT22;5824;49.336;8.652;2022-10-12T11:46:02;34.80;1.00
11536;DHT22;5824;49.336;8.652;2022-10-12T11:48:35;34.80;1.00
11536;DHT22;5824;49.336;8.652;2022-10-12T11:51:03;34.90;1.00
11536;DHT22;5824;49.336;8.652;2022-10-12T11:54:02;34.60;1.00
11536;DHT22;5824;49.336;8.652;2022-10-12T11:56:38;35.30;1.00
11536;DHT22;5824;49.336;8.652;2022-10-12T12:02:04;36.10;1.00
11536;DHT22;5824;49.336;8.652;2022-10-12T12:04:34;36.40;1.00
11536;DHT22;5824;49.336;8.652;2022-10-12T12:07:01;37.10;1.00
11536;DHT22;5824;49.336;8.652;2022-10-12T12:09:39;37.40;1.00
11536;DHT22;5824;49.336;8.652;2022-10-12T12:20:58;36.00;1.00
11536;DHT22;5824;49.336;8.652;2022-10-12T12:22:51;36.20;1.00
11536;DHT22;5824;49.336;8.652;2022-10-12T12:25:33;37.30;1.00
11536;DHT22;5824;49.336;8.652;2022-10-12T12:28:15;36.70;1.00
11536;DHT22;5824;49.336;8.652;2022-10-12T12:30:41;36.90;1.00
11536;DHT22;5824;49.336;8.652;2022-10-12T12:36:05;37.60;1.00
11536;DHT22;5824;49.336;8.652;2022-10-12T12:41:16;37.80;1.00
11536;DHT22;5824;49.336;8.652;2022-10-12T12:43:57;37.10;1.00
11536;DHT22;5824;49.336;8.652;2022-10-12T12:46:25;36.30;1.00
11536;DHT22;5824;49.336;8.652;2022-10-12T12:51:32;36.50;1.00
11536;DHT22;5824;49.336;8.652;2022-10-12T12:54:03;37.50;1.00
11536;DHT22;5824;49.336;8.652;2022-10-12T13:07:53;26.80;1.00
11536;DHT22;5824;49.336;8.652;2022-10-12T13:21:08;23.60;1.00
11536;DHT22;5824;49.336;8.652;2022-10-12T13:23:36;23.20;1.00
11536;DHT22;5824;49.336;8.652;2022-10-12T13:26:06;22.70;1.00
11536;DHT22;5824;49.336;8.652;2022-10-12T13:28:38;22.90;1.00
11536;DHT22;5824;49.336;8.652;2022-10-12T13:31:17;23.40;1.00
11536;DHT22;5824;49.336;8.652;2022-10-12T13:34:08;23.90;1.00
11536;DHT22;5824;49.336;8.652;2022-10-12T13:36:46;24.00;1.00
11536;DHT22;5824;49.336;8.652;2022-10-12T13:39:15;23.10;1.00
11536;DHT22;5824;49.336;8.652;2022-10-12T13:41:42;23.10;1.00
11536;DHT22;5824;49.336;8.652;2022-10-12T13:44:33;22.60;1.00
11536;DHT22;5824;49.336;8.652;2022-10-12T13:47:01;22.30;1.00
11536;DHT22;5824;49.336;8.652;2022-10-12T13:49:30;22.20;1.00
11536;DHT22;5824;49.336;8.652;2022-10-12T13:59:55;23.80;1.00
11536;DHT22;5824;49.336;8.652;2022-10-12T14:02:31;22.90;1.00
11536;DHT22;5824;49.336;8.652;2022-10-12T14:04:59;22.50;1.00
11536;DHT22;5824;49.336;8.652;2022-10-12T14:07:33;22.20;1.00
11536;DHT22;5824;49.336;8.652;2022-10-12T14:10:16;22.00;1.00
11536;DHT22;5824;49.336;8.652;2022-10-12T14:12:44;21.70;1.00
11536;DHT22;5824;49.336;8.652;2022-10-12T14:15:12;21.70;1.00
11536;DHT22;5824;49.336;8.652;2022-10-12T14:17:42;21.80;1.00
11536;DHT22;5824;49.336;8.652;2022-10-12T14:20:28;21.60;1.00
11536;DHT22;5824;49.336;8.652;2022-10-12T14:22:58;21.40;1.00
11536;DHT22;5824;49.336;8.652;2022-10-12T14:25:27;21.40;1.00
11536;DHT22;5824;49.336;8.652;2022-10-12T14:27:56;21.50;1.00
11536;DHT22;5824;49.336;8.652;2022-10-12T14:30:34;21.40;1.00
11536;DHT22;5824;49.336;8.652;2022-10-12T14:35:43;21.20;1.00
11536;DHT22;5824;49.336;8.652;2022-10-12T14:44:20;21.30;1.00
11536;DHT22;5824;49.336;8.652;2022-10-12T14:46:58;21.20;1.00
11536;DHT22;5824;49.336;8.652;2022-10-12T14:49:39;21.20;1.00
11536;DHT22;5824;49.336;8.652;2022-10-12T14:52:06;21.00;1.00
11536;DHT22;5824;49.336;8.652;2022-10-12T14:54:38;20.80;1.00
11536;DHT22;5824;49.336;8.652;2022-10-12T14:57:14;20.70;1.00
11536;DHT22;5824;49.336;8.652;2022-10-12T14:59:40;20.90;1.00
11536;DHT22;5824;49.336;8.652;2022-10-12T15:02:40;20.50;1.00
11536;DHT22;5824;49.336;8.652;2022-10-12T15:05:12;20.50;1.00
11536;DHT22;5824;49.336;8.652;2022-10-12T15:07:38;20.30;1.00
11536;DHT22;5824;49.336;8.652;2022-10-12T15:10:04;20.20;1.00
11536;DHT22;5824;49.336;8.652;2022-10-12T15:12:30;20.20;1.00
11536;DHT22;5824;49.336;8.652;2022-10-12T15:14:57;20.30;1.00
11536;DHT22;5824;49.336;8.652;2022-10-12T15:17:23;20.30;1.00
11536;DHT22;5824;49.336;8.652;2022-10-12T15:19:50;20.30;1.00
11536;DHT22;5824;49.336;8.652;2022-10-12T15:22:22;20.30;1.00
11536;DHT22;5824;49.336;8.652;2022-10-12T15:24:49;20.30;1.00
11536;DHT22;5824;49.336;8.652;2022-10-12T15:27:15;20.30;1.00
11536;DHT22;5824;49.336;8.652;2022-10-12T15:29:41;20.30;1.00
11536;DHT22;5824;49.336;8.652;2022-10-12T15:32:09;20.20;1.00
11536;DHT22;5824;49.336;8.652;2022-10-12T15:34:35;20.20;1.00
11536;DHT22;5824;49.336;8.652;2022-10-12T15:37:01;20.10;1.00
11536;DHT22;5824;49.336;8.652;2022-10-12T15:39:27;20.20;1.00
11536;DHT22;5824;49.336;8.652;2022-10-12T15:41:52;20.10;1.00
11536;DHT22;5824;49.336;8.652;2022-10-12T15:44:18;19.90;1.00
11536;DHT22;5824;49.336;8.652;2022-10-12T15:46:43;19.90;1.00
11536;DHT22;5824;49.336;8.652;2022-10-12T15:49:09;19.80;1.00
11536;DHT22;5824;49.336;8.652;2022-10-12T15:51:39;19.80;1.00
11536;DHT22;5824;49.336;8.652;2022-10-12T15:54:06;19.80;1.00
11536;DHT22;5824;49.336;8.652;2022-10-12T15:56:32;19.80;1.00
11536;DHT22;5824;49.336;8.652;2022-10-12T15:58:57;19.90;1.00
11536;DHT22;5824;49.336;8.652;2022-10-12T16:01:23;19.70;1.00
11536;DHT22;5824;49.336;8.652;2022-10-12T16:03:49;19.80;1.00
11536;DHT22;5824;49.336;8.652;2022-10-12T16:06:15;19.80;1.00
11536;DHT22;5824;49.336;8.652;2022-10-12T16:08:40;19.70;1.00
11536;DHT22;5824;49.336;8.652;2022-10-12T16:11:09;19.60;1.00
11536;DHT22;5824;49.336;8.652;2022-10-12T16:13:35;19.50;1.00
11536;DHT22;5824;49.336;8.652;2022-10-12T16:16:01;19.40;1.00
11536;DHT22;5824;49.336;8.652;2022-10-12T16:18:26;19.40;1.00
11536;DHT22;5824;49.336;8.652;2022-10-12T16:20:52;19.30;1.00
11536;DHT22;5824;49.336;8.652;2022-10-12T16:23:26;19.10;1.00
11536;DHT22;5824;49.336;8.652;2022-10-12T16:25:53;19.00;1.00
11536;DHT22;5824;49.336;8.652;2022-10-12T16:28:19;18.90;1.00
11536;DHT22;5824;49.336;8.652;2022-10-12T16:30:44;18.80;1.00
11536;DHT22;5824;49.336;8.652;2022-10-12T16:33:10;18.70;1.00
11536;DHT22;5824;49.336;8.652;2022-10-12T16:35:38;18.60;1.00
11536;DHT22;5824;49.336;8.652;2022-10-12T16:38:04;18.70;1.00
11536;DHT22;5824;49.336;8.652;2022-10-12T16:40:29;18.40;1.00
11536;DHT22;5824;49.336;8.652;2022-10-12T16:42:55;18.20;1.00
11536;DHT22;5824;49.336;8.652;2022-10-12T16:45:22;18.10;1.00
11536;DHT22;5824;49.336;8.652;2022-10-12T16:47:48;17.90;1.00
11536;DHT22;5824;49.336;8.652;2022-10-12T16:50:15;17.90;1.00
11536;DHT22;5824;49.336;8.652;2022-10-12T16:52:41;17.70;1.00
11536;DHT22;5824;49.336;8.652;2022-10-12T16:55:07;17.60;1.00
11536;DHT22;5824;49.336;8.652;2022-10-12T16:57:33;17.40;1.00
11536;DHT22;5824;49.336;8.652;2022-10-12T17:00:00;17.30;1.00
11536;DHT22;5824;49.336;8.652;2022-10-12T17:02:26;17.20;1.00
11536;DHT22;5824;49.336;8.652;2022-10-12T17:04:52;17.00;1.00
11536;DHT22;5824;49.336;8.652;2022-10-12T17:07:18;16.90;1.00
11536;DHT22;5824;49.336;8.652;2022-10-12T17:09:43;16.80;1.00
11536;DHT22;5824;49.336;8.652;2022-10-12T17:12:10;16.80;1.00
11536;DHT22;5824;49.336;8.652;2022-10-12T17:14:36;16.60;1.00
11536;DHT22;5824;49.336;8.652;2022-10-12T17:17:01;16.50;1.00
11536;DHT22;5824;49.336;8.652;2022-10-12T17:19:29;16.40;1.00
11536;DHT22;5824;49.336;8.652;2022-10-12T17:21:57;16.30;1.00
11536;DHT22;5824;49.336;8.652;2022-10-12T17:24:29;16.20;1.00
11536;DHT22;5824;49.336;8.652;2022-10-12T17:26:55;16.10;1.00
11536;DHT22;5824;49.336;8.652;2022-10-12T17:29:23;16.00;1.00
11536;DHT22;5824;49.336;8.652;2022-10-12T17:31:49;15.90;1.00
11536;DHT22;5824;49.336;8.652;2022-10-12T17:34:27;15.80;1.00
11536;DHT22;5824;49.336;8.652;2022-10-12T17:36:55;15.80;1.00
11536;DHT22;5824;49.336;8.652;2022-10-12T17:39:22;15.80;1.00
11536;DHT22;5824;49.336;8.652;2022-10-12T17:41:48;15.70;1.00
11536;DHT22;5824;49.336;8.652;2022-10-12T17:44:14;15.60;1.00
11536;DHT22;5824;49.336;8.652;2022-10-12T17:46:41;15.60;1.00
11536;DHT22;5824;49.336;8.652;2022-10-12T17:49:12;15.50;1.00
11536;DHT22;5824;49.336;8.652;2022-10-12T17:51:38;15.50;1.00
11536;DHT22;5824;49.336;8.652;2022-10-12T17:54:04;15.40;1.00
11536;DHT22;5824;49.336;8.652;2022-10-12T17:56:29;15.30;1.00
11536;DHT22;5824;49.336;8.652;2022-10-12T17:58:57;15.20;1.00
11536;DHT22;5824;49.336;8.652;2022-10-12T18:01:24;15.10;1.00